createdAt,value
2018-05-13T00:00:53.433Z,8.30
2018-05-13T00:03:24.165Z,8.60
2018-05-13T00:05:52.858Z,8.83
2018-05-13T00:08:21.109Z,9.53
2018-05-13T00:10:49.354Z,8.90
2018-05-13T00:13:18.022Z,9.00
2018-05-13T00:15:47.378Z,9.13
2018-05-13T00:18:15.644Z,8.83
2018-05-13T00:20:43.930Z,9.07
2018-05-13T00:23:12.146Z,8.73
2018-05-13T00:25:40.391Z,8.83
2018-05-13T00:28:09.515Z,9.67
2018-05-13T00:30:37.744Z,9.90
2018-05-13T00:33:05.971Z,9.27
2018-05-13T00:35:34.247Z,8.53
2018-05-13T00:38:02.474Z,9.43
2018-05-13T00:40:30.721Z,9.60
2018-05-13T00:42:59.015Z,9.37
2018-05-13T00:45:27.290Z,10.50
2018-05-13T00:47:56.664Z,9.20
2018-05-13T00:50:26.326Z,10.00
2018-05-13T00:52:55.792Z,9.30
2018-05-13T00:57:33.662Z,10.07
2018-05-13T01:00:02.299Z,8.47
2018-05-13T01:02:31.288Z,10.10
2018-05-13T01:04:59.577Z,10.70
2018-05-13T01:07:28.575Z,8.93
2018-05-13T01:09:57.567Z,9.47
2018-05-13T01:12:25.853Z,8.90
2018-05-13T01:14:54.088Z,9.20
2018-05-13T01:17:22.319Z,9.87
2018-05-13T01:19:51.580Z,10.00
2018-05-13T01:22:21.333Z,9.90
2018-05-13T01:24:50.942Z,9.83
2018-05-13T01:27:20.413Z,9.97
2018-05-13T01:29:48.550Z,10.60
2018-05-13T01:32:16.807Z,10.40
2018-05-13T01:34:45.023Z,9.40
2018-05-13T01:37:13.965Z,9.30
2018-05-13T01:39:43.349Z,10.20
2018-05-13T01:42:11.598Z,10.67
2018-05-13T01:44:41.388Z,8.53
2018-05-13T01:47:10.971Z,9.80
2018-05-13T01:49:39.471Z,9.37
2018-05-13T01:52:08.545Z,10.13
2018-05-13T01:54:36.775Z,9.67
2018-05-13T01:57:06.390Z,9.17
2018-05-13T01:59:34.523Z,9.13
2018-05-13T02:02:03.927Z,9.20
2018-05-13T02:04:32.150Z,8.90
2018-05-13T02:07:01.750Z,9.57
2018-05-13T02:09:30.338Z,8.93
2018-05-13T02:11:59.291Z,9.50
2018-05-13T02:14:27.523Z,9.90
2018-05-13T02:16:56.570Z,9.70
2018-05-13T02:19:24.813Z,9.80
2018-05-13T02:21:53.099Z,9.20
2018-05-13T02:24:21.331Z,10.10
2018-05-13T02:26:51.076Z,9.43
2018-05-13T02:29:19.517Z,9.80
2018-05-13T02:31:47.744Z,9.33
2018-05-13T02:34:17.337Z,9.30
2018-05-13T02:36:45.475Z,8.43
2018-05-13T02:39:14.095Z,8.80
2018-05-13T02:41:42.337Z,9.47
2018-05-13T02:44:10.595Z,9.37
2018-05-13T02:46:40.385Z,8.73
2018-05-13T02:49:08.657Z,9.33
2018-05-13T02:51:38.019Z,9.30
2018-05-13T02:54:06.287Z,9.97
2018-05-13T02:56:35.279Z,9.73
2018-05-13T02:59:03.511Z,9.60
2018-05-13T03:01:32.563Z,9.87
2018-05-13T03:04:00.792Z,9.70
2018-05-13T03:06:29.019Z,9.53
2018-05-13T03:08:58.685Z,10.03
2018-05-13T03:11:28.154Z,10.90
2018-05-13T03:13:57.031Z,11.37
2018-05-13T03:16:25.298Z,10.10
2018-05-13T03:18:54.294Z,9.53
2018-05-13T03:21:22.583Z,10.43
2018-05-13T03:23:51.583Z,10.53
2018-05-13T03:26:21.184Z,9.67
2018-05-13T03:28:50.683Z,9.80
2018-05-13T03:31:18.786Z,9.97
2018-05-13T03:33:47.037Z,10.47
2018-05-13T03:36:16.665Z,12.80
2018-05-13T03:38:46.122Z,11.63
2018-05-13T03:41:15.383Z,10.47
2018-05-13T03:43:45.159Z,10.20
2018-05-13T03:46:13.399Z,10.93
2018-05-13T03:48:42.792Z,10.40
2018-05-13T03:51:11.470Z,10.00
2018-05-13T03:53:40.843Z,9.77
2018-05-13T03:56:09.847Z,11.47
2018-05-13T03:58:38.138Z,9.70
2018-05-13T04:01:07.135Z,9.90
2018-05-13T04:03:36.149Z,9.80
2018-05-13T04:06:05.570Z,9.63
2018-05-13T04:08:46.379Z,8.63
2018-05-13T04:11:27.786Z,9.90
2018-05-13T04:14:08.745Z,10.80
2018-05-13T04:16:38.743Z,10.60
2018-05-13T04:19:06.995Z,11.50
2018-05-13T04:21:35.226Z,11.23
2018-05-13T04:24:04.259Z,11.03
2018-05-13T04:26:33.287Z,12.73
2018-05-13T04:29:01.518Z,13.17
2018-05-13T04:31:30.565Z,13.70
2018-05-13T04:33:58.839Z,13.00
2018-05-13T04:36:27.079Z,12.90
2018-05-13T04:38:55.371Z,13.63
2018-05-13T04:41:23.615Z,13.53
2018-05-13T04:43:51.952Z,13.77
2018-05-13T04:46:20.187Z,14.70
2018-05-13T04:48:48.441Z,14.47
2018-05-13T04:51:17.852Z,13.57
2018-05-13T04:53:46.082Z,13.63
2018-05-13T04:56:15.666Z,12.70
2018-05-13T04:58:43.824Z,12.87
2018-05-13T05:01:12.059Z,14.27
2018-05-13T05:03:44.102Z,14.00
2018-05-13T05:06:13.563Z,14.80
2018-05-13T05:08:43.031Z,13.40
2018-05-13T05:11:12.543Z,13.23
2018-05-13T05:13:42.021Z,14.80
2018-05-13T05:16:11.479Z,15.10
2018-05-13T05:18:41.005Z,14.47
2018-05-13T05:21:10.466Z,14.80
2018-05-13T05:23:39.927Z,13.90
2018-05-13T05:26:09.430Z,14.60
2018-05-13T05:28:38.912Z,15.00
2018-05-13T05:31:08.383Z,14.60
2018-05-13T05:33:37.869Z,15.20
2018-05-13T05:36:07.341Z,15.40
2018-05-13T05:38:36.793Z,18.20
2018-05-13T05:41:06.296Z,19.23
2018-05-13T05:43:35.751Z,18.93
2018-05-13T05:46:05.229Z,20.27
2018-05-13T05:48:34.718Z,22.00
2018-05-13T05:51:04.185Z,24.93
2018-05-13T05:53:33.725Z,25.30
2018-05-13T05:56:03.200Z,27.30
2018-05-13T05:58:32.666Z,27.40
2018-05-13T06:02:43.017Z,29.20
2018-05-13T06:05:12.475Z,29.80
2018-05-13T06:07:41.939Z,27.77
2018-05-13T06:10:11.459Z,26.30
2018-05-13T06:12:40.914Z,26.63
2018-05-13T06:15:10.378Z,28.97
2018-05-13T06:17:39.878Z,27.40
2018-05-13T06:20:09.339Z,28.47
2018-05-13T06:22:38.793Z,29.40
2018-05-13T06:25:08.403Z,26.97
2018-05-13T06:27:37.762Z,27.97
2018-05-13T06:30:07.231Z,30.60
2018-05-13T06:32:36.786Z,30.27
2018-05-13T06:35:06.246Z,31.93
2018-05-13T06:37:35.712Z,30.83
2018-05-13T06:40:05.213Z,28.37
2018-05-13T06:42:34.666Z,29.50
2018-05-13T06:45:04.126Z,31.67
2018-05-13T06:47:33.640Z,32.10
2018-05-13T06:50:03.090Z,31.43
2018-05-13T06:52:32.551Z,31.97
2018-05-13T06:55:02.075Z,30.77
2018-05-13T06:57:31.529Z,30.00
2018-05-13T07:00:01.004Z,29.50
2018-05-13T07:02:30.498Z,29.10
2018-05-13T07:04:59.961Z,31.20
2018-05-13T07:07:29.432Z,30.20
2018-05-13T07:09:58.938Z,29.80
2018-05-13T07:12:28.402Z,29.10
2018-05-13T07:14:57.866Z,30.80
2018-05-13T07:17:27.357Z,30.77
2018-05-13T07:19:56.819Z,31.70
2018-05-13T07:22:26.288Z,29.77
2018-05-13T07:24:55.784Z,29.70
2018-05-13T07:27:25.252Z,30.47
2018-05-13T07:29:54.746Z,30.10
2018-05-13T07:32:24.242Z,29.47
2018-05-13T07:34:53.706Z,28.47
2018-05-13T07:37:23.245Z,28.67
2018-05-13T07:39:52.712Z,28.90
2018-05-13T07:42:22.158Z,30.70
2018-05-13T07:44:51.690Z,28.73
2018-05-13T07:47:21.153Z,29.33
2018-05-13T07:49:50.615Z,29.80
2018-05-13T07:52:20.122Z,27.97
2018-05-13T07:54:49.582Z,29.97
2018-05-13T07:57:19.037Z,29.93
2018-05-13T07:59:48.725Z,32.77
2018-05-13T08:02:18.222Z,28.73
2018-05-13T08:04:47.941Z,32.00
2018-05-13T08:07:17.460Z,31.30
2018-05-13T08:09:47.040Z,27.70
2018-05-13T08:12:16.594Z,31.90
2018-05-13T08:14:46.239Z,30.43
2018-05-13T08:17:15.780Z,30.40
2018-05-13T08:19:45.361Z,30.53
2018-05-13T08:22:14.833Z,31.40
2018-05-13T08:24:44.489Z,31.37
2018-05-13T08:27:13.990Z,32.30
2018-05-13T08:29:43.450Z,34.13
2018-05-13T08:32:12.947Z,31.60
2018-05-13T08:34:42.421Z,35.27
2018-05-13T08:37:11.878Z,34.50
2018-05-13T08:39:41.383Z,37.07
2018-05-13T08:42:10.857Z,35.20
2018-05-13T08:44:40.329Z,38.43
2018-05-13T08:47:09.838Z,37.67
2018-05-13T08:49:39.321Z,41.83
2018-05-13T08:52:08.792Z,43.70
2018-05-13T08:54:38.286Z,43.37
2018-05-13T08:57:07.762Z,45.23
2018-05-13T08:59:37.246Z,46.17
2018-05-13T09:02:06.743Z,48.87
2018-05-13T09:04:36.198Z,48.47
2018-05-13T09:07:05.655Z,49.90
2018-05-13T09:09:35.178Z,49.53
2018-05-13T09:12:04.639Z,51.20
2018-05-13T09:14:34.094Z,51.30
2018-05-13T09:17:03.598Z,51.90
2018-05-13T09:19:33.058Z,54.17
2018-05-13T09:22:02.514Z,52.53
2018-05-13T09:24:31.998Z,57.87
2018-05-13T09:27:01.481Z,57.87
2018-05-13T09:29:30.956Z,57.37
2018-05-13T09:32:00.428Z,58.87
2018-05-13T09:34:29.920Z,58.40
2018-05-13T09:36:59.378Z,61.20
2018-05-13T09:39:28.858Z,59.83
2018-05-13T09:41:58.353Z,61.13
2018-05-13T09:44:27.827Z,59.20
2018-05-13T09:46:57.279Z,60.60
2018-05-13T09:49:26.782Z,61.87
2018-05-13T09:51:56.243Z,59.87
2018-05-13T09:54:25.707Z,64.07
2018-05-13T09:56:55.206Z,62.27
2018-05-13T09:59:24.681Z,59.27
2018-05-13T10:01:54.129Z,62.37
2018-05-13T10:04:23.662Z,62.57
2018-05-13T10:06:53.136Z,65.70
2018-05-13T10:09:22.630Z,63.20
2018-05-13T10:11:52.104Z,65.93
2018-05-13T10:14:21.631Z,66.80
2018-05-13T10:16:51.113Z,67.33
2018-05-13T10:19:20.570Z,72.57
2018-05-13T10:21:50.032Z,70.20
2018-05-13T10:24:19.541Z,68.33
2018-05-13T10:26:49.022Z,72.13
2018-05-13T10:29:18.488Z,71.57
2018-05-13T10:31:47.971Z,73.57
2018-05-13T10:34:17.426Z,70.33
2018-05-13T10:36:46.933Z,72.03
2018-05-13T10:39:16.448Z,66.60
2018-05-13T10:41:45.911Z,70.57
2018-05-13T10:44:15.384Z,68.03
2018-05-13T10:46:45.176Z,69.93
2018-05-13T10:49:14.642Z,67.00
2018-05-13T10:51:44.102Z,68.80
2018-05-13T10:54:13.915Z,64.97
2018-05-13T10:56:45.760Z,63.80
2018-05-13T10:59:15.287Z,62.77
2018-05-13T11:01:44.742Z,66.00
2018-05-13T11:04:14.203Z,61.50
2018-05-13T11:06:43.726Z,56.93
2018-05-13T11:09:13.200Z,55.67
2018-05-13T11:11:42.706Z,59.77
2018-05-13T11:14:12.712Z,57.37
2018-05-13T11:16:42.203Z,63.47
2018-05-13T11:19:11.660Z,59.00
2018-05-13T11:21:41.286Z,55.80
2018-05-13T11:24:10.743Z,54.10
2018-05-13T11:26:40.202Z,55.33
2018-05-13T11:29:09.719Z,51.27
2018-05-13T11:31:39.182Z,51.47
2018-05-13T11:34:08.675Z,53.00
2018-05-13T11:36:38.205Z,51.57
2018-05-13T11:39:07.691Z,51.97
2018-05-13T11:41:37.150Z,52.93
2018-05-13T11:44:06.650Z,51.90
2018-05-13T11:46:36.124Z,49.90
2018-05-13T11:49:05.571Z,52.30
2018-05-13T11:51:35.075Z,47.13
2018-05-13T11:54:04.527Z,47.60
2018-05-13T11:56:34.128Z,50.67
2018-05-13T11:59:03.517Z,50.63
2018-05-13T12:01:33.019Z,48.73
2018-05-13T12:04:02.536Z,47.03
2018-05-13T12:06:32.080Z,52.10
2018-05-13T12:09:01.541Z,46.80
2018-05-13T12:11:31.028Z,47.50
2018-05-13T12:14:01.875Z,49.43
2018-05-13T12:16:31.337Z,48.50
2018-05-13T12:19:01.093Z,48.43
2018-05-13T12:21:32.106Z,48.30
2018-05-13T12:24:01.568Z,50.57
2018-05-13T12:26:31.065Z,48.80
2018-05-13T12:29:00.597Z,49.83
2018-05-13T12:31:30.045Z,47.20
2018-05-13T12:33:59.538Z,47.20
2018-05-13T12:36:29.027Z,47.40
2018-05-13T12:38:58.529Z,47.40
2018-05-13T12:41:28.093Z,48.50
2018-05-13T12:43:57.594Z,49.57
2018-05-13T12:46:27.475Z,46.80
2018-05-13T12:48:56.936Z,48.20
2018-05-13T12:51:26.417Z,47.20
2018-05-13T12:53:55.935Z,50.80
2018-05-13T12:56:25.535Z,50.00
2018-05-13T12:58:54.972Z,49.40
2018-05-13T13:01:24.490Z,53.17
2018-05-13T13:03:53.997Z,52.60
2018-05-13T13:06:23.438Z,49.50
2018-05-13T13:08:52.940Z,49.77
2018-05-13T13:11:22.398Z,53.33
2018-05-13T13:13:51.858Z,52.53
2018-05-13T13:16:21.367Z,51.00
2018-05-13T13:18:50.837Z,53.80
2018-05-13T13:21:20.337Z,51.50
2018-05-13T13:23:49.829Z,51.90
2018-05-13T13:26:19.324Z,51.80
2018-05-13T13:28:48.790Z,52.50
2018-05-13T13:31:18.319Z,51.37
2018-05-13T13:33:47.821Z,50.73
2018-05-13T13:36:17.287Z,53.40
2018-05-13T13:38:46.877Z,51.20
2018-05-13T13:41:16.367Z,52.30
2018-05-13T13:43:45.827Z,52.67
2018-05-13T13:46:15.286Z,50.30
2018-05-13T13:48:45.037Z,51.30
2018-05-13T13:51:14.512Z,50.87
2018-05-13T13:53:44.051Z,51.40
2018-05-13T13:56:13.707Z,49.67
2018-05-13T13:58:43.138Z,50.57
2018-05-13T14:01:12.715Z,48.50
2018-05-13T14:03:42.211Z,51.37
2018-05-13T14:06:11.702Z,48.87
2018-05-13T14:08:41.159Z,47.30
2018-05-13T14:11:10.667Z,49.67
2018-05-13T14:13:40.123Z,49.70
2018-05-13T14:16:09.573Z,47.80
2018-05-13T14:18:39.093Z,49.07
2018-05-13T14:21:08.542Z,46.20
2018-05-13T14:23:38.002Z,46.70
2018-05-13T14:26:07.521Z,45.60
2018-05-13T14:28:36.973Z,45.50
2018-05-13T14:31:06.435Z,46.30
2018-05-13T14:33:35.930Z,44.97
2018-05-13T14:36:05.391Z,47.67
2018-05-13T14:38:34.865Z,47.10
2018-05-13T14:41:04.410Z,45.63
2018-05-13T14:43:33.826Z,47.30
2018-05-13T14:46:03.292Z,49.70
2018-05-13T14:48:32.777Z,49.87
2018-05-13T14:51:02.253Z,45.87
2018-05-13T14:53:31.721Z,46.07
2018-05-13T14:56:01.237Z,46.90
2018-05-13T14:58:30.698Z,45.57
2018-05-13T15:01:00.151Z,45.90
2018-05-13T15:03:29.650Z,45.60
2018-05-13T15:05:59.126Z,43.60
2018-05-13T15:08:28.583Z,44.57
2018-05-13T15:13:44.872Z,43.60
2018-05-13T15:16:14.330Z,41.07
2018-05-13T15:18:43.819Z,42.40
2018-05-13T15:21:13.318Z,43.43
2018-05-13T15:23:42.780Z,41.30
2018-05-13T15:26:12.243Z,41.00
2018-05-13T15:28:41.790Z,41.37
2018-05-13T15:31:11.247Z,40.50
2018-05-13T15:33:41.928Z,40.40
2018-05-13T15:36:11.411Z,41.23
2018-05-13T15:38:40.874Z,40.40
2018-05-13T15:41:10.375Z,42.20
2018-05-13T15:43:39.831Z,41.07
2018-05-13T15:46:09.282Z,40.23
2018-05-13T15:48:38.770Z,44.07
2018-05-13T15:51:08.238Z,42.90
2018-05-13T15:53:37.751Z,42.97
2018-05-13T15:56:07.238Z,44.13
2018-05-13T15:58:36.698Z,44.60
2018-05-13T16:01:06.190Z,41.13
2018-05-13T16:03:35.649Z,43.00
2018-05-13T16:06:05.106Z,41.60
2018-05-13T16:08:34.614Z,42.07
2018-05-13T16:11:04.074Z,41.80
2018-05-13T16:13:33.536Z,45.50
2018-05-13T16:16:03.027Z,42.53
2018-05-13T16:18:32.487Z,43.07
2018-05-13T16:21:01.960Z,44.80
2018-05-13T16:23:33.078Z,44.47
2018-05-13T16:26:02.995Z,44.20
2018-05-13T16:28:32.448Z,42.27
2018-05-13T16:31:01.911Z,45.80
2018-05-13T16:33:31.432Z,43.83
2018-05-13T16:36:00.887Z,45.17
2018-05-13T16:38:30.365Z,47.70
2018-05-13T16:40:59.854Z,45.53
2018-05-13T16:43:29.318Z,45.57
2018-05-13T16:45:58.783Z,44.43
2018-05-13T16:48:28.265Z,46.47
2018-05-13T16:50:57.738Z,45.33
2018-05-13T16:53:27.242Z,47.60
2018-05-13T16:55:56.703Z,47.93
2018-05-13T16:58:26.173Z,47.10
2018-05-13T17:00:55.662Z,46.63
2018-05-13T17:03:25.130Z,47.07
2018-05-13T17:05:54.593Z,46.53
2018-05-13T17:08:24.792Z,44.07
2018-05-13T17:10:54.250Z,44.00
2018-05-13T17:13:23.715Z,46.80
2018-05-13T17:15:53.312Z,45.47
2018-05-13T17:18:22.771Z,44.50
2018-05-13T17:20:53.171Z,45.50
2018-05-13T17:23:22.672Z,46.07
2018-05-13T17:25:52.139Z,46.70
2018-05-13T17:28:21.600Z,49.33
2018-05-13T17:30:51.110Z,47.00
2018-05-13T17:33:20.571Z,48.17
2018-05-13T17:35:50.035Z,48.97
2018-05-13T17:38:19.527Z,48.17
2018-05-13T17:40:48.990Z,49.47
2018-05-13T17:43:18.490Z,50.03
2018-05-13T17:45:47.982Z,48.93
2018-05-13T17:48:17.443Z,49.33
2018-05-13T17:50:46.942Z,48.60
2018-05-13T17:53:16.428Z,50.20
2018-05-13T17:55:45.883Z,51.20
2018-05-13T17:58:15.382Z,52.50
2018-05-13T18:00:44.890Z,52.30
2018-05-13T18:03:14.410Z,50.90
2018-05-13T18:05:43.829Z,50.50
2018-05-13T18:08:13.286Z,53.23
2018-05-13T18:10:42.747Z,50.57
2018-05-13T18:13:12.255Z,52.57
2018-05-13T18:15:41.710Z,52.97
2018-05-13T18:18:11.171Z,51.00
2018-05-13T18:20:40.681Z,53.13
2018-05-13T18:23:10.142Z,52.10
2018-05-13T18:25:39.611Z,52.87
2018-05-13T18:28:09.294Z,52.27
2018-05-13T18:30:38.756Z,51.90
2018-05-13T18:33:08.221Z,53.10
2018-05-13T18:35:37.766Z,57.50
2018-05-13T18:38:07.231Z,54.17
2018-05-13T18:40:36.699Z,55.10
2018-05-13T18:43:06.222Z,54.27
2018-05-13T18:45:35.686Z,53.93
2018-05-13T18:48:05.149Z,55.23
2018-05-13T18:50:34.701Z,53.40
2018-05-13T18:53:04.166Z,52.90
2018-05-13T18:55:33.626Z,59.37
2018-05-13T18:58:03.131Z,59.40
2018-05-13T19:00:32.588Z,54.23
2018-05-13T19:03:02.048Z,54.13
2018-05-13T19:05:31.546Z,53.57
2018-05-13T19:08:01.017Z,55.57
2018-05-13T19:10:30.475Z,52.50
2018-05-13T19:12:59.977Z,54.10
2018-05-13T19:15:29.439Z,51.17
2018-05-13T19:17:58.898Z,54.27
2018-05-13T19:20:28.397Z,54.33
2018-05-13T19:22:57.859Z,55.73
2018-05-13T19:25:27.338Z,54.57
2018-05-13T19:27:56.846Z,54.23
2018-05-13T19:30:26.330Z,53.40
2018-05-13T19:32:55.791Z,52.13
2018-05-13T19:35:25.286Z,54.17
2018-05-13T19:37:54.755Z,53.47
2018-05-13T19:40:24.215Z,54.43
2018-05-13T19:42:53.715Z,53.23
2018-05-13T19:45:23.182Z,52.37
2018-05-13T19:47:52.648Z,54.27
2018-05-13T19:50:22.136Z,55.10
2018-05-13T19:52:51.598Z,53.90
2018-05-13T19:55:21.081Z,54.57
2018-05-13T19:57:50.570Z,54.67
2018-05-13T20:00:20.035Z,53.60
2018-05-13T20:02:49.653Z,51.03
2018-05-13T20:05:19.006Z,50.93
2018-05-13T20:07:48.466Z,52.10
2018-05-13T20:10:18.575Z,51.60
2018-05-13T20:12:48.039Z,54.47
2018-05-13T20:15:17.502Z,56.50
2018-05-13T20:17:47.000Z,53.73
2018-05-13T20:20:16.459Z,54.07
2018-05-13T20:22:51.973Z,53.43
2018-05-13T20:25:21.363Z,51.83
2018-05-13T20:27:50.822Z,57.00
2018-05-13T20:30:20.392Z,53.10
2018-05-13T20:32:49.823Z,54.33
2018-05-13T20:35:19.290Z,52.23
2018-05-13T20:37:48.796Z,55.80
2018-05-13T20:40:18.259Z,56.10
2018-05-13T20:42:47.723Z,52.13
2018-05-13T20:45:17.214Z,54.30
2018-05-13T20:47:46.679Z,52.23
2018-05-13T20:50:16.134Z,53.30
2018-05-13T20:52:45.632Z,52.33
2018-05-13T20:55:15.091Z,52.67
2018-05-13T20:57:44.561Z,52.07
2018-05-13T21:00:14.071Z,54.77
2018-05-13T21:02:43.531Z,53.27
2018-05-13T21:05:13.037Z,54.33
2018-05-13T21:07:42.499Z,56.37
2018-05-13T21:10:11.962Z,57.87
2018-05-13T21:12:41.463Z,52.30
2018-05-13T21:15:10.951Z,54.33
2018-05-13T21:17:40.414Z,54.10
2018-05-13T21:20:09.920Z,56.43
2018-05-13T21:22:39.404Z,54.87
2018-05-13T21:25:08.863Z,53.20
2018-05-13T21:27:38.366Z,55.23
2018-05-13T21:30:07.896Z,55.37
2018-05-13T21:32:37.290Z,56.07
2018-05-13T21:35:06.859Z,55.63
2018-05-13T21:37:36.318Z,54.93
2018-05-13T21:40:05.782Z,54.47
2018-05-13T21:42:35.282Z,53.97
2018-05-13T21:45:04.742Z,53.00
2018-05-13T21:47:34.206Z,54.87
2018-05-13T21:50:03.714Z,50.90
2018-05-13T21:52:33.175Z,52.53
2018-05-13T21:55:02.643Z,54.03
2018-05-13T21:57:32.138Z,53.60
2018-05-13T22:00:01.595Z,53.90
2018-05-13T22:02:31.064Z,50.20
2018-05-13T22:05:00.553Z,54.90
2018-05-13T22:07:30.020Z,52.90
2018-05-13T22:09:59.478Z,54.77
2018-05-13T22:12:28.998Z,53.50
2018-05-13T22:14:58.454Z,52.97
2018-05-13T22:17:27.991Z,55.57
2018-05-13T22:19:57.415Z,54.90
2018-05-13T22:22:26.878Z,53.67
2018-05-13T22:24:56.342Z,55.10
2018-05-13T22:27:25.849Z,52.77
2018-05-13T22:29:55.315Z,56.00
2018-05-13T22:32:24.778Z,56.33
2018-05-13T22:34:54.271Z,55.20
2018-05-13T22:37:23.744Z,55.00
2018-05-13T22:39:53.199Z,54.13
2018-05-13T22:42:22.700Z,58.50
2018-05-13T22:44:52.168Z,57.97
2018-05-13T22:47:21.664Z,57.00
2018-05-13T22:49:51.243Z,56.43
2018-05-13T22:52:20.713Z,55.40
2018-05-13T22:54:50.170Z,58.97
2018-05-13T22:57:19.769Z,55.10
2018-05-13T22:59:49.222Z,61.20
2018-05-13T23:02:18.692Z,53.37
2018-05-13T23:04:48.228Z,56.47
2018-05-13T23:07:17.682Z,61.17
2018-05-13T23:09:47.148Z,60.27
2018-05-13T23:12:16.611Z,58.80
2018-05-13T23:14:46.102Z,60.53
2018-05-13T23:17:15.565Z,60.40
2018-05-13T23:19:45.023Z,60.13
2018-05-13T23:22:20.310Z,58.27
2018-05-13T23:24:49.779Z,59.50
2018-05-13T23:27:19.243Z,58.00
2018-05-13T23:29:48.766Z,57.90
2018-05-13T23:32:18.225Z,60.17
2018-05-13T23:34:47.687Z,58.13
2018-05-13T23:37:17.179Z,58.97
2018-05-13T23:39:46.723Z,61.17
2018-05-13T23:42:16.207Z,59.83
2018-05-13T23:44:45.691Z,59.50
2018-05-13T23:47:15.154Z,62.30
2018-05-13T23:49:44.639Z,61.00
2018-05-13T23:52:14.127Z,62.53
2018-05-13T23:54:43.616Z,59.83
2018-05-13T23:57:13.070Z,66.03
2018-05-13T23:59:43.042Z,62.50
